Time;durP1;ratioP1;P1;durP2;ratioP2;P2;SDS_P1;SDS_P2;PMS_P1;PMS_P2;Temp;Humidity;BMP_temperature;BMP_pressure;BME280_temperature;BME280_humidity;BME280_pressure;Samples;Min_cycle;Max_cycle;Signal;HPM_P1;HPM_P2
2022/06/10 00:13:59;;;;;;;;;34.20;32.00;;;;;;;;5206883;28;8749;-70
2022/06/10 00:17:07;;;;;;;;;33.80;31.80;;;;;;;;5213274;28;8914;-70
2022/06/10 00:19:38;;;;;;;;;26.60;26.00;;;;;;;;5193029;28;8778;-70
2022/06/10 00:22:09;;;;;;;;;41.60;35.40;;;;;;;;5193244;28;8763;-69
2022/06/10 00:24:40;;;;;;;;;29.20;29.00;;;;;;;;5193888;28;8810;-69
2022/06/10 00:27:30;;;;;;;;;29.00;28.40;;;;;;;;5212090;28;9494;-69
2022/06/10 00:30:21;;;;;;;;;30.80;30.80;;;;;;;;5209638;28;8831;-69
2022/06/10 00:33:12;;;;;;;;;29.40;28.60;;;;;;;;5232241;28;8809;-69
2022/06/10 00:35:43;;;;;;;;;42.20;36.80;;;;;;;;5197354;28;8782;-69
2022/06/10 00:38:15;;;;;;;;;53.80;45.80;;;;;;;;5192388;28;8813;-70
2022/06/10 00:40:48;;;;;;;;;44.00;38.00;;;;;;;;5192676;28;8779;-69
2022/06/10 00:43:22;;;;;;;;;50.40;43.20;;;;;;;;5208836;28;8779;-69
2022/06/10 00:46:12;;;;;;;;;48.40;41.00;;;;;;;;5197971;28;8959;-69
2022/06/10 00:48:54;;;;;;;;;46.40;39.40;;;;;;;;5229778;28;8788;-69
2022/06/10 00:51:33;;;;;;;;;53.80;43.40;;;;;;;;5212765;28;8813;-69
2022/06/10 00:54:10;;;;;;;;;46.40;39.00;;;;;;;;5212685;28;8773;-69
2022/06/10 00:56:44;;;;;;;;;49.40;42.60;;;;;;;;5212913;28;8795;-69
2022/06/10 00:59:23;;;;;;;;;48.80;40.80;;;;;;;;5229385;28;8773;-69
2022/06/10 01:02:15;;;;;;;;;51.60;43.20;;;;;;;;5196337;28;8818;-70
2022/06/10 01:04:46;;;;;;;;;47.40;40.00;;;;;;;;5222441;28;8824;-71
2022/06/10 01:07:20;;;;;;;;;50.60;43.40;;;;;;;;5229062;28;8784;-71
2022/06/10 01:10:12;;;;;;;;;51.40;43.20;;;;;;;;5229189;28;8835;-71
2022/06/10 01:12:44;;;;;;;;;48.20;40.80;;;;;;;;5212405;28;9538;-71
2022/06/10 01:15:34;;;;;;;;;49.00;41.20;;;;;;;;5211262;28;9487;-70
2022/06/10 01:18:29;;;;;;;;;42.00;36.00;;;;;;;;5207699;28;8779;-69
2022/06/10 01:21:00;;;;;;;;;48.60;40.80;;;;;;;;5208165;28;9411;-70
2022/06/10 01:23:49;;;;;;;;;48.40;41.60;;;;;;;;5192302;28;8907;-69
2022/06/10 01:27:47;;;;;;;;;50.00;41.60;;;;;;;;5206253;28;8805;-69
2022/06/10 01:29:30;;;;;;;;;49.20;39.60;;;;;;;;5228609;28;8881;-69
2022/06/10 01:32:09;;;;;;;;;51.60;43.40;;;;;;;;5224672;28;8784;-69
2022/06/10 01:35:20;;;;;;;;;55.00;46.00;;;;;;;;5191807;28;8819;-69
2022/06/10 01:37:57;;;;;;;;;44.40;38.40;;;;;;;;5145703;28;8801;-69
2022/06/10 01:40:35;;;;;;;;;50.40;42.80;;;;;;;;5146060;28;8935;-70
2022/06/10 01:43:16;;;;;;;;;49.60;42.00;;;;;;;;5186911;28;8806;-70
2022/06/10 01:45:47;;;;;;;;;47.40;39.20;;;;;;;;5212376;28;8921;-69
2022/06/10 01:48:37;;;;;;;;;51.40;43.00;;;;;;;;5228571;28;8773;-69
2022/06/10 01:51:27;;;;;;;;;49.00;39.60;;;;;;;;5212019;28;8824;-69
2022/06/10 01:54:08;;;;;;;;;45.60;39.40;;;;;;;;5212115;28;8777;-69
2022/06/10 01:57:00;;;;;;;;;42.80;37.00;;;;;;;;5214996;28;9611;-69
2022/06/10 01:59:55;;;;;;;;;45.80;38.40;;;;;;;;5214014;28;8801;-69
2022/06/10 02:02:29;;;;;;;;;45.60;39.60;;;;;;;;5202747;28;8816;-69
2022/06/10 02:05:12;;;;;;;;;47.80;40.20;;;;;;;;5205953;28;8941;-69
2022/06/10 02:07:47;;;;;;;;;45.60;39.20;;;;;;;;5191765;28;8810;-69
2022/06/10 02:10:26;;;;;;;;;44.00;38.40;;;;;;;;5225153;28;8826;-68
2022/06/10 02:13:01;;;;;;;;;43.80;38.20;;;;;;;;5225288;28;8782;-68
2022/06/10 02:16:12;;;;;;;;;45.40;39.20;;;;;;;;5204135;28;9512;-68
2022/06/10 02:18:53;;;;;;;;;50.40;42.40;;;;;;;;5210371;28;8818;-68
